createdAt,value
2023-03-17T00:01:17.120Z,2.54
2023-03-17T00:03:47.439Z,2.54
2023-03-17T00:06:32.288Z,2.52
2023-03-17T00:09:04.537Z,2.50
2023-03-17T00:11:33.216Z,2.49
2023-03-17T00:14:10.872Z,2.49
2023-03-17T00:16:53.520Z,2.50
2023-03-17T00:19:34.885Z,2.53
2023-03-17T00:22:09.077Z,2.56
2023-03-17T00:24:45.062Z,2.55
2023-03-17T00:27:18.316Z,2.55
2023-03-17T00:29:49.358Z,2.54
2023-03-17T00:32:25.749Z,2.52
2023-03-17T00:37:45.780Z,2.53
2023-03-17T00:40:38.112Z,2.56
2023-03-17T00:43:23.891Z,2.57
2023-03-17T00:46:08.086Z,2.61
2023-03-17T00:48:39.192Z,2.63
2023-03-17T00:51:15.360Z,2.63
2023-03-17T00:53:53.796Z,2.61
2023-03-17T00:56:37.685Z,2.62
2023-03-17T01:02:35.356Z,2.65
2023-03-17T01:05:44.763Z,2.66
2023-03-17T01:08:27.282Z,2.68
2023-03-17T01:11:14.742Z,2.69
2023-03-17T01:17:05.044Z,2.67
2023-03-17T01:19:54.981Z,2.68
2023-03-17T01:22:43.141Z,2.70
2023-03-17T01:25:36.966Z,2.70
2023-03-17T01:28:28.187Z,2.68
2023-03-17T01:31:21.763Z,2.66
2023-03-17T01:34:22.181Z,2.66
2023-03-17T01:37:30.703Z,2.66
2023-03-17T01:40:43.033Z,2.66
2023-03-17T01:43:52.193Z,2.65
2023-03-17T01:53:06.205Z,2.59
2023-03-17T01:55:38.091Z,2.58
2023-03-17T01:58:07.186Z,2.57
2023-03-17T02:00:35.654Z,2.59
2023-03-17T02:03:04.378Z,2.61
2023-03-17T02:05:33.817Z,2.64
2023-03-17T02:08:02.130Z,2.64
2023-03-17T02:10:33.700Z,2.62
2023-03-17T02:13:05.677Z,2.58
2023-03-17T02:15:39.356Z,2.61
2023-03-17T02:18:08.013Z,2.65
2023-03-17T02:20:38.457Z,2.66
2023-03-17T02:26:10.196Z,2.65
2023-03-17T02:28:39.734Z,2.64
2023-03-17T02:31:09.576Z,2.66
2023-03-17T02:33:38.208Z,2.64
2023-03-17T02:36:07.403Z,2.65
2023-03-17T02:38:37.812Z,2.64
2023-03-17T02:41:10.020Z,2.66
2023-03-17T02:43:38.602Z,2.65
2023-03-17T02:46:07.618Z,2.63
2023-03-17T02:48:36.824Z,2.63
2023-03-17T02:51:05.174Z,2.62
2023-03-17T02:53:35.554Z,2.59
2023-03-17T02:56:04.703Z,2.58
2023-03-17T02:58:32.816Z,2.58
2023-03-17T03:01:00.919Z,2.58
2023-03-17T03:03:30.092Z,2.62
2023-03-17T03:05:59.201Z,2.64
2023-03-17T03:08:31.058Z,2.63
2023-03-17T03:11:00.549Z,2.60
2023-03-17T03:13:31.387Z,2.57
2023-03-17T03:16:01.723Z,2.61
2023-03-17T03:18:32.979Z,2.63
2023-03-17T03:21:04.069Z,2.65
2023-03-17T03:23:32.275Z,2.67
2023-03-17T03:26:02.342Z,2.65
2023-03-17T03:28:32.115Z,2.62
2023-03-17T03:31:00.207Z,2.61
2023-03-17T03:33:29.114Z,2.64
2023-03-17T03:35:59.695Z,2.66
2023-03-17T03:38:27.844Z,2.68
2023-03-17T03:40:55.919Z,-131.07
2023-03-17T03:43:24.408Z,-128.00
2023-03-17T03:45:52.888Z,-128.00
2023-03-17T03:48:21.909Z,-128.00
2023-03-17T03:50:50.844Z,-128.00
2023-03-17T03:53:20.302Z,-128.00
2023-03-17T03:55:49.669Z,-128.00
2023-03-17T03:58:18.140Z,-128.00
2023-03-17T04:00:46.882Z,-128.00
2023-03-17T04:03:16.128Z,-128.00
2023-03-17T04:05:46.083Z,-128.00
2023-03-17T04:08:18.363Z,-128.00
2023-03-17T04:10:47.721Z,-128.00
2023-03-17T04:13:15.899Z,-128.00
2023-03-17T04:15:47.216Z,-128.00
2023-03-17T04:18:16.969Z,-128.00
2023-03-17T04:20:45.024Z,-128.00
2023-03-17T04:23:13.473Z,-128.00
2023-03-17T04:25:42.883Z,-128.00
2023-03-17T04:28:12.663Z,-128.00
2023-03-17T04:30:42.837Z,-128.00
2023-03-17T04:33:11.273Z,-128.00
2023-03-17T04:35:39.411Z,-128.00
2023-03-17T04:38:07.967Z,-128.00
2023-03-17T04:40:37.294Z,-128.00
2023-03-17T04:43:05.573Z,-128.00
2023-03-17T04:45:33.935Z,-128.00
2023-03-17T08:39:14.338Z,2.81
2023-03-17T08:41:48.065Z,3.07
2023-03-17T08:44:14.923Z,3.06
2023-03-17T08:46:41.778Z,3.05
2023-03-17T08:49:09.795Z,3.01
2023-03-17T08:51:36.738Z,2.96
2023-03-17T08:54:07.232Z,2.96
2023-03-17T09:00:46.418Z,2.99
2023-03-17T09:03:13.218Z,2.95
2023-03-17T09:05:41.893Z,2.97
2023-03-17T09:08:11.402Z,2.98
2023-03-17T09:10:38.128Z,2.97
2023-03-17T09:13:12.111Z,2.96
2023-03-17T09:15:39.844Z,2.97
2023-03-17T09:18:06.773Z,2.97
2023-03-17T09:20:37.381Z,2.96
2023-03-17T09:23:08.527Z,2.97
2023-03-17T09:25:35.982Z,2.98
2023-03-17T09:28:04.458Z,3.05
2023-03-17T09:30:34.461Z,3.10
2023-03-17T09:33:01.290Z,3.17
2023-03-17T09:35:30.821Z,3.21
2023-03-17T09:37:57.558Z,3.22
2023-03-17T09:40:32.297Z,3.19
2023-03-17T09:43:26.966Z,3.17
2023-03-17T09:45:53.702Z,3.20
2023-03-17T09:49:06.798Z,3.22
2023-03-17T09:51:42.651Z,3.19
2023-03-17T09:54:17.925Z,3.19
2023-03-17T09:56:49.301Z,3.23
2023-03-17T09:59:43.175Z,3.26
2023-03-17T10:02:24.908Z,3.30
2023-03-17T10:04:52.559Z,3.34
2023-03-17T10:07:40.250Z,3.37
2023-03-17T10:10:15.274Z,3.34
2023-03-17T10:13:21.150Z,3.32
2023-03-17T10:15:56.684Z,3.36
2023-03-17T10:18:30.765Z,3.42
2023-03-17T10:21:03.118Z,3.45
2023-03-17T10:23:35.144Z,3.44
2023-03-17T10:26:16.838Z,3.44
2023-03-17T10:28:43.728Z,3.49
2023-03-17T10:31:19.407Z,3.52
2023-03-17T10:33:51.657Z,3.55
2023-03-17T10:36:32.813Z,3.55
2023-03-17T10:38:59.534Z,3.56
2023-03-17T10:41:26.548Z,3.58
2023-03-17T10:43:54.123Z,3.60
2023-03-17T10:46:23.801Z,3.60
2023-03-17T10:48:53.118Z,3.62
2023-03-17T10:51:31.352Z,3.62
2023-03-17T10:54:03.848Z,3.65
2023-03-17T10:56:35.655Z,3.68
2023-03-17T10:59:08.039Z,3.63
2023-03-17T11:01:38.698Z,3.65
2023-03-17T11:04:24.164Z,3.70
2023-03-17T11:06:51.889Z,3.74
2023-03-17T11:09:19.153Z,3.74
2023-03-17T11:11:58.546Z,3.74
2023-03-17T11:14:27.692Z,3.73
2023-03-17T11:16:58.579Z,3.72
2023-03-17T11:19:37.761Z,3.73
2023-03-17T11:22:13.614Z,3.73
2023-03-17T11:25:10.868Z,3.74
2023-03-17T11:27:43.915Z,3.72
2023-03-17T11:30:27.506Z,3.73
2023-03-17T11:33:01.702Z,3.76
2023-03-17T11:35:40.868Z,3.76
2023-03-17T11:38:24.550Z,3.79
2023-03-17T11:41:01.730Z,3.81
2023-03-17T11:43:48.806Z,3.84
2023-03-17T11:46:29.038Z,3.87
2023-03-17T11:49:14.630Z,3.87
2023-03-17T11:52:04.423Z,3.88
2023-03-17T11:54:54.580Z,3.86
2023-03-17T11:57:44.091Z,3.87
2023-03-17T12:00:27.243Z,3.90
2023-03-17T12:02:59.994Z,3.90
2023-03-17T12:05:27.163Z,3.91
2023-03-17T12:07:56.382Z,3.90
2023-03-17T12:10:34.015Z,3.92
2023-03-17T12:13:35.839Z,3.92
2023-03-17T12:16:15.008Z,3.96
2023-03-17T12:18:59.096Z,3.99
2023-03-17T12:21:49.575Z,3.96
2023-03-17T12:24:24.408Z,3.94
2023-03-17T12:27:04.459Z,3.93
2023-03-17T12:29:49.172Z,3.93
2023-03-17T12:32:21.907Z,3.97
2023-03-17T12:35:01.889Z,3.96
2023-03-17T12:37:30.111Z,3.96
2023-03-17T12:40:09.841Z,3.95
2023-03-17T12:43:00.519Z,3.99
2023-03-17T12:45:34.780Z,4.00
2023-03-17T12:48:14.367Z,4.00
2023-03-17T12:51:06.296Z,4.02
2023-03-17T12:53:34.156Z,4.06
2023-03-17T12:56:23.220Z,4.09
2023-03-17T12:58:51.338Z,4.07
2023-03-17T13:01:36.887Z,4.04
2023-03-17T13:04:05.962Z,3.99
2023-03-17T13:06:40.801Z,4.01
2023-03-17T13:09:37.951Z,4.00
2023-03-17T13:12:06.482Z,4.04
2023-03-17T13:14:47.755Z,4.08
2023-03-17T13:17:23.901Z,4.07
2023-03-17T13:20:14.858Z,4.05
2023-03-17T13:23:03.126Z,4.02
2023-03-17T13:25:37.761Z,4.05
2023-03-17T13:28:11.740Z,4.07
2023-03-17T13:30:38.877Z,4.09
2023-03-17T13:33:23.355Z,4.10
2023-03-17T13:35:59.936Z,4.09
2023-03-17T13:38:32.942Z,4.12
2023-03-17T13:41:06.229Z,4.11
2023-03-17T13:43:52.226Z,4.09
2023-03-17T13:46:19.178Z,4.06
2023-03-17T13:48:46.598Z,4.09
2023-03-17T13:51:20.065Z,4.08
2023-03-17T16:12:24.683Z,3.43
2023-03-17T16:15:05.419Z,3.67
2023-03-17T16:17:49.253Z,3.68
2023-03-17T16:20:29.023Z,3.69
2023-03-17T16:23:09.399Z,3.68
2023-03-17T16:25:47.813Z,3.67
2023-03-17T16:28:21.120Z,3.72
2023-03-17T16:30:50.288Z,3.70
2023-03-17T16:33:43.595Z,3.76
2023-03-17T16:36:17.885Z,3.75
2023-03-17T16:38:49.288Z,3.74
2023-03-17T16:41:25.050Z,3.73
2023-03-17T16:43:58.212Z,3.72
2023-03-17T16:46:34.822Z,3.71
2023-03-17T16:49:07.226Z,3.72
2023-03-17T16:51:35.514Z,3.72
2023-03-17T16:54:06.768Z,3.72
2023-03-17T16:56:36.015Z,3.73
2023-03-17T16:59:11.695Z,3.75
2023-03-17T17:01:40.668Z,3.77
2023-03-17T17:04:10.842Z,3.80
2023-03-17T17:06:39.566Z,3.81
2023-03-17T17:09:08.408Z,3.79
2023-03-17T17:11:36.617Z,3.83
2023-03-17T17:14:05.915Z,3.92
2023-03-17T17:16:36.106Z,3.97
2023-03-17T17:19:04.374Z,4.01
2023-03-17T17:21:33.084Z,4.00
2023-03-17T17:24:01.322Z,4.01
2023-03-17T17:26:32.516Z,4.03
2023-03-17T17:29:01.276Z,4.04
2023-03-17T17:31:30.063Z,4.04
2023-03-17T17:33:59.577Z,4.07
2023-03-17T17:36:27.694Z,4.12
2023-03-17T17:38:59.267Z,4.00
2023-03-17T17:41:29.011Z,4.04
2023-03-17T17:43:58.863Z,4.07
2023-03-17T17:46:28.500Z,4.04
2023-03-17T17:48:57.068Z,4.11
2023-03-17T17:51:28.909Z,4.13
2023-03-17T17:53:57.472Z,4.14
2023-03-17T17:56:26.179Z,4.19
2023-03-17T17:58:55.141Z,4.23
2023-03-17T18:01:23.349Z,4.26
2023-03-17T18:03:54.773Z,4.26
2023-03-17T18:06:22.919Z,4.25
2023-03-17T18:08:51.292Z,4.25
2023-03-17T18:11:23.092Z,4.25
2023-03-17T18:13:51.563Z,4.25
2023-03-17T18:16:19.843Z,4.24
2023-03-17T18:18:52.111Z,4.29
2023-03-17T18:21:21.545Z,4.30
2023-03-17T18:23:50.200Z,4.27
2023-03-17T18:26:18.444Z,4.30
2023-03-17T18:28:47.980Z,4.28
2023-03-17T18:31:29.447Z,4.29
2023-03-17T18:34:05.112Z,4.29
2023-03-17T18:36:35.897Z,4.32
2023-03-17T18:39:05.227Z,4.33
2023-03-17T18:41:33.454Z,4.33
2023-03-17T18:44:02.516Z,4.34
2023-03-17T18:46:31.624Z,4.32
2023-03-17T18:49:00.169Z,4.31
2023-03-17T18:51:28.548Z,4.34
2023-03-17T18:53:56.674Z,4.37
2023-03-17T18:56:29.219Z,4.36
2023-03-17T18:58:58.032Z,4.35
2023-03-17T19:01:29.608Z,4.37
2023-03-17T19:03:58.592Z,4.39
2023-03-17T19:06:26.868Z,4.42
2023-03-17T19:08:55.015Z,4.44
2023-03-17T19:11:23.122Z,4.46
2023-03-17T19:13:52.620Z,4.46
2023-03-17T19:16:29.118Z,4.46
2023-03-17T19:18:58.141Z,4.43
2023-03-17T19:21:26.429Z,4.42
2023-03-17T19:23:58.536Z,4.43
2023-03-17T19:26:28.770Z,4.40
2023-03-17T19:28:58.731Z,4.38
2023-03-17T19:31:27.089Z,4.38
2023-03-17T19:33:55.966Z,4.39
2023-03-17T19:36:25.336Z,4.40
2023-03-17T19:38:53.455Z,4.41
2023-03-17T19:41:32.579Z,4.41
2023-03-17T19:44:02.242Z,4.42
2023-03-17T19:46:30.749Z,4.42
2023-03-17T19:49:01.766Z,4.42
2023-03-17T19:51:29.929Z,4.44
2023-03-17T19:54:05.432Z,4.45
2023-03-17T19:56:34.655Z,4.46
2023-03-17T19:59:02.929Z,4.49
2023-03-17T20:01:32.736Z,4.50
2023-03-17T20:04:01.593Z,4.48
2023-03-17T20:06:32.090Z,4.47
2023-03-17T20:09:01.514Z,4.46
2023-03-17T20:11:30.055Z,4.49
2023-03-17T20:13:58.450Z,4.51
2023-03-17T20:16:27.267Z,4.52
2023-03-17T20:18:56.545Z,4.52
2023-03-17T20:21:26.864Z,4.51
2023-03-17T20:23:56.427Z,4.53
2023-03-17T20:26:26.209Z,4.53
2023-03-17T20:28:54.483Z,4.54
2023-03-17T20:31:24.022Z,4.57
2023-03-17T20:33:52.859Z,4.60
2023-03-17T20:36:22.253Z,4.61
2023-03-17T20:38:51.020Z,4.62
2023-03-17T20:41:19.478Z,4.65
2023-03-17T20:43:48.263Z,4.65
2023-03-17T20:46:19.837Z,4.63
2023-03-17T20:48:48.392Z,4.63
2023-03-17T20:51:16.861Z,4.65
2023-03-17T20:53:49.661Z,4.67
2023-03-17T20:56:19.925Z,4.68
2023-03-17T20:58:51.106Z,4.72
2023-03-17T21:01:21.358Z,4.73
2023-03-17T21:03:50.826Z,4.75
2023-03-17T21:06:19.807Z,4.76
2023-03-17T21:08:48.023Z,4.77
2023-03-17T21:11:23.177Z,4.79
2023-03-17T21:13:52.032Z,4.81
2023-03-17T21:16:46.447Z,4.81
2023-03-17T21:19:18.317Z,4.83
2023-03-17T21:21:46.856Z,4.83
2023-03-17T21:24:32.052Z,4.83
2023-03-17T21:27:01.758Z,4.81
2023-03-17T21:29:30.805Z,4.82
2023-03-17T21:32:04.503Z,4.82
2023-03-17T21:34:35.364Z,4.82
2023-03-17T21:37:03.968Z,4.81
2023-03-17T21:39:36.284Z,4.80
2023-03-17T21:42:05.562Z,4.81
2023-03-17T21:44:37.309Z,4.81
2023-03-17T21:47:06.392Z,4.81
2023-03-17T21:49:34.682Z,4.80
2023-03-17T21:52:04.527Z,4.78
2023-03-17T21:54:33.438Z,4.78
2023-03-17T21:57:05.570Z,4.78
2023-03-17T21:59:37.065Z,4.78
2023-03-17T22:02:05.198Z,4.79
2023-03-17T22:04:33.422Z,4.80
2023-03-17T22:07:04.561Z,4.80
2023-03-17T22:09:38.179Z,4.82
2023-03-17T22:12:07.962Z,4.80
2023-03-17T22:14:37.190Z,4.79
2023-03-17T22:17:06.430Z,4.80
2023-03-17T22:19:35.210Z,4.80
2023-03-17T22:22:08.429Z,4.81
2023-03-17T22:24:38.343Z,4.80
2023-03-17T22:27:06.500Z,4.81
2023-03-17T22:29:36.876Z,4.78
2023-03-17T22:32:05.391Z,4.78
2023-03-17T22:34:33.588Z,4.79
2023-03-17T22:37:03.733Z,4.77
2023-03-17T22:39:32.060Z,4.75
2023-03-17T22:42:03.038Z,4.73
2023-03-17T22:44:31.945Z,4.73
2023-03-17T22:47:00.002Z,4.74
2023-03-17T22:49:28.517Z,4.72
2023-03-17T22:51:56.759Z,4.73
2023-03-17T22:54:25.197Z,4.72
2023-03-17T22:56:53.475Z,4.73
2023-03-17T22:59:21.792Z,4.72
2023-03-17T23:01:50.446Z,4.69
2023-03-17T23:04:18.702Z,4.66
2023-03-17T23:06:48.991Z,4.63
2023-03-17T23:09:17.273Z,4.60
2023-03-17T23:11:46.217Z,4.58
2023-03-17T23:14:17.429Z,4.57
2023-03-17T23:16:46.673Z,4.55
2023-03-17T23:19:20.446Z,4.54
2023-03-17T23:21:48.649Z,4.55
2023-03-17T23:24:18.072Z,4.52
2023-03-17T23:26:46.784Z,4.50
2023-03-17T23:29:16.071Z,4.47
2023-03-17T23:31:45.698Z,4.46
2023-03-17T23:34:13.763Z,4.48
2023-03-17T23:36:42.355Z,4.48
2023-03-17T23:39:11.799Z,4.48
2023-03-17T23:41:40.269Z,4.49
2023-03-17T23:44:09.326Z,4.51
2023-03-17T23:46:38.790Z,4.52
2023-03-17T23:49:07.432Z,4.48
2023-03-17T23:51:36.117Z,4.48
2023-03-17T23:54:05.894Z,4.49
2023-03-17T23:56:37.165Z,4.51
2023-03-17T23:59:07.646Z,4.51
